sensor_id;sensor_type;location;lat;lon;timestamp;P1;durP1;ratioP1;P2;durP2;ratioP2
84115;SDS011;74211;52.234;9.860;2024-02-21T00:01:36;20.63;;;9.15;;
84115;SDS011;74211;52.234;9.860;2024-02-21T00:04:06;16.98;;;10.13;;
84115;SDS011;74211;52.234;9.860;2024-02-21T00:06:36;20.95;;;9.18;;
84115;SDS011;74211;52.234;9.860;2024-02-21T00:09:08;19.67;;;9.85;;
84115;SDS011;74211;52.234;9.860;2024-02-21T00:11:39;18.77;;;9.10;;
84115;SDS011;74211;52.234;9.860;2024-02-21T00:14:09;17.77;;;8.70;;
84115;SDS011;74211;52.234;9.860;2024-02-21T00:16:39;19.42;;;9.45;;
84115;SDS011;74211;52.234;9.860;2024-02-21T00:19:09;23.23;;;10.32;;
84115;SDS011;74211;52.234;9.860;2024-02-21T00:21:39;23.17;;;10.35;;
84115;SDS011;74211;52.234;9.860;2024-02-21T00:24:11;21.85;;;10.32;;
84115;SDS011;74211;52.234;9.860;2024-02-21T00:26:41;21.88;;;10.25;;
84115;SDS011;74211;52.234;9.860;2024-02-21T00:29:11;23.30;;;10.73;;
84115;SDS011;74211;52.234;9.860;2024-02-21T00:31:41;22.42;;;10.48;;
84115;SDS011;74211;52.234;9.860;2024-02-21T00:34:11;23.42;;;11.77;;
84115;SDS011;74211;52.234;9.860;2024-02-21T00:36:42;24.98;;;11.00;;
84115;SDS011;74211;52.234;9.860;2024-02-21T00:39:14;21.25;;;10.55;;
84115;SDS011;74211;52.234;9.860;2024-02-21T00:41:44;19.13;;;10.75;;
84115;SDS011;74211;52.234;9.860;2024-02-21T00:44:14;25.20;;;10.30;;
84115;SDS011;74211;52.234;9.860;2024-02-21T00:46:44;22.13;;;11.68;;
84115;SDS011;74211;52.234;9.860;2024-02-21T00:49:14;22.60;;;11.68;;
84115;SDS011;74211;52.234;9.860;2024-02-21T00:51:44;26.50;;;10.95;;
84115;SDS011;74211;52.234;9.860;2024-02-21T00:54:17;27.65;;;12.50;;
84115;SDS011;74211;52.234;9.860;2024-02-21T00:56:47;27.30;;;10.02;;
84115;SDS011;74211;52.234;9.860;2024-02-21T00:59:17;22.17;;;10.27;;
84115;SDS011;74211;52.234;9.860;2024-02-21T01:01:47;25.98;;;11.52;;
84115;SDS011;74211;52.234;9.860;2024-02-21T01:04:17;26.08;;;12.43;;
84115;SDS011;74211;52.234;9.860;2024-02-21T01:06:47;23.13;;;10.98;;
84115;SDS011;74211;52.234;9.860;2024-02-21T01:09:20;24.30;;;12.57;;
84115;SDS011;74211;52.234;9.860;2024-02-21T01:11:52;24.17;;;11.18;;
84115;SDS011;74211;52.234;9.860;2024-02-21T01:14:25;22.67;;;12.32;;
84115;SDS011;74211;52.234;9.860;2024-02-21T01:16:55;23.48;;;11.23;;
84115;SDS011;74211;52.234;9.860;2024-02-21T01:19:25;19.30;;;9.27;;
84115;SDS011;74211;52.234;9.860;2024-02-21T01:21:55;23.83;;;10.98;;
84115;SDS011;74211;52.234;9.860;2024-02-21T01:24:27;21.38;;;10.30;;
84115;SDS011;74211;52.234;9.860;2024-02-21T01:26:58;24.63;;;11.05;;
84115;SDS011;74211;52.234;9.860;2024-02-21T01:29:27;25.85;;;11.00;;
84115;SDS011;74211;52.234;9.860;2024-02-21T01:31:57;23.38;;;10.10;;
84115;SDS011;74211;52.234;9.860;2024-02-21T01:34:27;21.48;;;10.50;;
84115;SDS011;74211;52.234;9.860;2024-02-21T01:36:59;19.83;;;9.68;;
84115;SDS011;74211;52.234;9.860;2024-02-21T01:39:33;23.70;;;12.48;;
84115;SDS011;74211;52.234;9.860;2024-02-21T01:42:03;31.40;;;13.38;;
84115;SDS011;74211;52.234;9.860;2024-02-21T01:44:34;25.92;;;10.25;;
84115;SDS011;74211;52.234;9.860;2024-02-21T01:47:04;24.50;;;11.60;;
84115;SDS011;74211;52.234;9.860;2024-02-21T01:49:35;24.13;;;11.90;;
84115;SDS011;74211;52.234;9.860;2024-02-21T01:52:05;25.50;;;10.50;;
84115;SDS011;74211;52.234;9.860;2024-02-21T01:54:38;25.10;;;10.65;;
84115;SDS011;74211;52.234;9.860;2024-02-21T01:57:08;21.67;;;12.10;;
84115;SDS011;74211;52.234;9.860;2024-02-21T01:59:38;26.25;;;12.15;;
84115;SDS011;74211;52.234;9.860;2024-02-21T02:02:08;20.60;;;10.73;;
84115;SDS011;74211;52.234;9.860;2024-02-21T02:04:38;20.88;;;10.98;;
84115;SDS011;74211;52.234;9.860;2024-02-21T02:07:09;23.73;;;11.57;;
84115;SDS011;74211;52.234;9.860;2024-02-21T02:09:41;23.83;;;11.88;;
84115;SDS011;74211;52.234;9.860;2024-02-21T02:12:12;19.48;;;10.38;;
84115;SDS011;74211;52.234;9.860;2024-02-21T02:14:42;25.60;;;10.43;;
84115;SDS011;74211;52.234;9.860;2024-02-21T02:17:12;26.63;;;12.48;;
84115;SDS011;74211;52.234;9.860;2024-02-21T02:19:43;19.83;;;11.00;;
84115;SDS011;74211;52.234;9.860;2024-02-21T02:22:14;29.58;;;15.02;;
84115;SDS011;74211;52.234;9.860;2024-02-21T02:24:49;27.98;;;12.40;;
84115;SDS011;74211;52.234;9.860;2024-02-21T02:27:20;29.95;;;12.32;;
84115;SDS011;74211;52.234;9.860;2024-02-21T02:29:51;30.92;;;13.57;;
84115;SDS011;74211;52.234;9.860;2024-02-21T02:32:21;25.33;;;11.65;;
84115;SDS011;74211;52.234;9.860;2024-02-21T02:34:51;20.77;;;11.20;;
84115;SDS011;74211;52.234;9.860;2024-02-21T02:37:22;26.02;;;13.18;;
84115;SDS011;74211;52.234;9.860;2024-02-21T02:39:54;27.00;;;12.55;;
84115;SDS011;74211;52.234;9.860;2024-02-21T02:42:24;22.73;;;11.45;;
84115;SDS011;74211;52.234;9.860;2024-02-21T02:44:54;22.88;;;11.68;;
84115;SDS011;74211;52.234;9.860;2024-02-21T02:47:24;25.83;;;14.10;;
84115;SDS011;74211;52.234;9.860;2024-02-21T02:49:54;22.38;;;11.75;;
84115;SDS011;74211;52.234;9.860;2024-02-21T02:52:24;26.95;;;12.48;;
84115;SDS011;74211;52.234;9.860;2024-02-21T02:54:57;28.30;;;12.27;;
84115;SDS011;74211;52.234;9.860;2024-02-21T02:57:28;22.42;;;12.63;;
84115;SDS011;74211;52.234;9.860;2024-02-21T02:59:58;23.65;;;13.73;;
84115;SDS011;74211;52.234;9.860;2024-02-21T03:02:28;28.67;;;13.93;;
84115;SDS011;74211;52.234;9.860;2024-02-21T03:04:58;24.70;;;12.07;;
84115;SDS011;74211;52.234;9.860;2024-02-21T03:07:28;21.90;;;12.27;;
84115;SDS011;74211;52.234;9.860;2024-02-21T03:10:01;26.60;;;14.65;;
84115;SDS011;74211;52.234;9.860;2024-02-21T03:12:31;23.15;;;12.82;;
84115;SDS011;74211;52.234;9.860;2024-02-21T03:15:01;25.08;;;11.48;;
84115;SDS011;74211;52.234;9.860;2024-02-21T03:17:32;21.73;;;11.90;;
84115;SDS011;74211;52.234;9.860;2024-02-21T03:20:02;29.77;;;14.50;;
84115;SDS011;74211;52.234;9.860;2024-02-21T03:22:38;25.95;;;12.70;;
84115;SDS011;74211;52.234;9.860;2024-02-21T03:25:11;31.17;;;13.05;;
84115;SDS011;74211;52.234;9.860;2024-02-21T03:27:42;22.70;;;11.32;;
84115;SDS011;74211;52.234;9.860;2024-02-21T03:30:12;22.95;;;12.55;;
84115;SDS011;74211;52.234;9.860;2024-02-21T03:32:42;22.25;;;12.00;;
84115;SDS011;74211;52.234;9.860;2024-02-21T03:35:12;26.10;;;13.27;;
84115;SDS011;74211;52.234;9.860;2024-02-21T03:37:44;29.40;;;13.90;;
84115;SDS011;74211;52.234;9.860;2024-02-21T03:40:17;26.90;;;12.05;;
84115;SDS011;74211;52.234;9.860;2024-02-21T03:42:47;20.73;;;10.85;;
84115;SDS011;74211;52.234;9.860;2024-02-21T03:45:16;24.88;;;12.90;;
84115;SDS011;74211;52.234;9.860;2024-02-21T03:47:47;26.02;;;14.05;;
84115;SDS011;74211;52.234;9.860;2024-02-21T03:50:17;23.98;;;10.77;;
84115;SDS011;74211;52.234;9.860;2024-02-21T03:52:47;21.70;;;11.00;;
84115;SDS011;74211;52.234;9.860;2024-02-21T03:55:20;24.38;;;11.32;;
84115;SDS011;74211;52.234;9.860;2024-02-21T03:57:50;26.10;;;12.95;;
84115;SDS011;74211;52.234;9.860;2024-02-21T04:00:20;26.60;;;12.93;;
84115;SDS011;74211;52.234;9.860;2024-02-21T04:02:50;19.33;;;11.18;;
84115;SDS011;74211;52.234;9.860;2024-02-21T04:05:20;22.70;;;11.10;;
84115;SDS011;74211;52.234;9.860;2024-02-21T04:07:50;19.65;;;11.65;;
84115;SDS011;74211;52.234;9.860;2024-02-21T04:10:23;21.95;;;11.75;;
84115;SDS011;74211;52.234;9.860;2024-02-21T04:12:53;23.60;;;11.15;;
84115;SDS011;74211;52.234;9.860;2024-02-21T04:15:23;27.77;;;10.63;;
84115;SDS011;74211;52.234;9.860;2024-02-21T04:17:53;20.17;;;11.18;;
84115;SDS011;74211;52.234;9.860;2024-02-21T04:20:23;25.52;;;12.30;;
84115;SDS011;74211;52.234;9.860;2024-02-21T04:22:53;21.05;;;13.15;;
84115;SDS011;74211;52.234;9.860;2024-02-21T04:25:26;19.23;;;10.75;;
84115;SDS011;74211;52.234;9.860;2024-02-21T04:27:56;21.88;;;12.18;;
84115;SDS011;74211;52.234;9.860;2024-02-21T04:30:26;19.50;;;11.82;;
84115;SDS011;74211;52.234;9.860;2024-02-21T04:32:56;17.38;;;9.82;;
84115;SDS011;74211;52.234;9.860;2024-02-21T04:35:27;21.45;;;11.90;;
84115;SDS011;74211;52.234;9.860;2024-02-21T04:37:57;23.48;;;13.05;;
84115;SDS011;74211;52.234;9.860;2024-02-21T04:40:30;20.83;;;13.30;;
84115;SDS011;74211;52.234;9.860;2024-02-21T04:43:00;27.63;;;13.00;;
84115;SDS011;74211;52.234;9.860;2024-02-21T04:45:30;18.58;;;10.70;;
84115;SDS011;74211;52.234;9.860;2024-02-21T04:48:00;21.30;;;13.10;;
84115;SDS011;74211;52.234;9.860;2024-02-21T04:50:30;21.73;;;12.38;;
84115;SDS011;74211;52.234;9.860;2024-02-21T04:53:00;18.77;;;10.40;;
84115;SDS011;74211;52.234;9.860;2024-02-21T04:55:33;20.60;;;11.75;;
84115;SDS011;74211;52.234;9.860;2024-02-21T04:58:03;24.40;;;10.82;;
84115;SDS011;74211;52.234;9.860;2024-02-21T05:00:33;21.30;;;10.13;;
84115;SDS011;74211;52.234;9.860;2024-02-21T05:03:03;22.63;;;11.40;;
84115;SDS011;74211;52.234;9.860;2024-02-21T05:05:33;21.13;;;10.50;;
84115;SDS011;74211;52.234;9.860;2024-02-21T05:08:04;25.23;;;13.07;;
84115;SDS011;74211;52.234;9.860;2024-02-21T05:10:37;27.42;;;12.27;;
84115;SDS011;74211;52.234;9.860;2024-02-21T05:13:07;19.27;;;13.10;;
84115;SDS011;74211;52.234;9.860;2024-02-21T05:15:37;20.33;;;11.80;;
84115;SDS011;74211;52.234;9.860;2024-02-21T05:18:07;21.73;;;11.05;;
84115;SDS011;74211;52.234;9.860;2024-02-21T05:20:37;20.05;;;11.68;;
84115;SDS011;74211;52.234;9.860;2024-02-21T05:23:07;25.70;;;11.68;;
84115;SDS011;74211;52.234;9.860;2024-02-21T05:25:40;25.13;;;11.90;;
84115;SDS011;74211;52.234;9.860;2024-02-21T05:28:10;17.65;;;10.60;;
84115;SDS011;74211;52.234;9.860;2024-02-21T05:30:40;19.42;;;11.05;;
84115;SDS011;74211;52.234;9.860;2024-02-21T05:33:10;18.40;;;10.52;;
84115;SDS011;74211;52.234;9.860;2024-02-21T05:35:48;21.58;;;11.55;;
84115;SDS011;74211;52.234;9.860;2024-02-21T05:38:18;25.70;;;11.10;;
84115;SDS011;74211;52.234;9.860;2024-02-21T05:40:51;16.90;;;9.80;;
84115;SDS011;74211;52.234;9.860;2024-02-21T05:43:21;20.92;;;12.85;;
84115;SDS011;74211;52.234;9.860;2024-02-21T05:45:51;19.52;;;10.77;;
84115;SDS011;74211;52.234;9.860;2024-02-21T05:48:21;23.40;;;9.98;;
84115;SDS011;74211;52.234;9.860;2024-02-21T05:50:51;24.98;;;10.77;;
84115;SDS011;74211;52.234;9.860;2024-02-21T05:53:21;19.35;;;9.77;;
84115;SDS011;74211;52.234;9.860;2024-02-21T05:55:54;22.42;;;11.60;;
84115;SDS011;74211;52.234;9.860;2024-02-21T05:58:24;26.30;;;9.65;;
84115;SDS011;74211;52.234;9.860;2024-02-21T06:00:54;21.85;;;10.77;;
84115;SDS011;74211;52.234;9.860;2024-02-21T06:03:24;16.92;;;9.45;;
84115;SDS011;74211;52.234;9.860;2024-02-21T06:05:54;26.10;;;12.15;;
84115;SDS011;74211;52.234;9.860;2024-02-21T06:08:24;25.02;;;10.63;;
84115;SDS011;74211;52.234;9.860;2024-02-21T06:10:57;19.10;;;11.40;;
84115;SDS011;74211;52.234;9.860;2024-02-21T06:13:27;23.92;;;10.98;;
84115;SDS011;74211;52.234;9.860;2024-02-21T06:15:57;23.98;;;10.45;;
84115;SDS011;74211;52.234;9.860;2024-02-21T06:18:27;18.30;;;10.85;;
84115;SDS011;74211;52.234;9.860;2024-02-21T06:20:57;20.83;;;9.85;;
84115;SDS011;74211;52.234;9.860;2024-02-21T06:23:27;17.92;;;10.00;;
84115;SDS011;74211;52.234;9.860;2024-02-21T06:25:59;16.17;;;9.88;;
84115;SDS011;74211;52.234;9.860;2024-02-21T06:28:29;18.92;;;10.82;;
84115;SDS011;74211;52.234;9.860;2024-02-21T06:30:59;24.77;;;9.88;;
84115;SDS011;74211;52.234;9.860;2024-02-21T06:33:30;18.67;;;10.68;;
84115;SDS011;74211;52.234;9.860;2024-02-21T06:36:00;23.42;;;11.57;;
84115;SDS011;74211;52.234;9.860;2024-02-21T06:38:30;15.77;;;9.77;;
84115;SDS011;74211;52.234;9.860;2024-02-21T06:41:03;17.05;;;9.45;;
84115;SDS011;74211;52.234;9.860;2024-02-21T06:43:34;24.10;;;10.05;;
84115;SDS011;74211;52.234;9.860;2024-02-21T06:46:04;18.75;;;11.35;;
84115;SDS011;74211;52.234;9.860;2024-02-21T06:48:34;18.00;;;10.32;;
84115;SDS011;74211;52.234;9.860;2024-02-21T06:51:16;21.52;;;9.68;;
84115;SDS011;74211;52.234;9.860;2024-02-21T06:53:47;22.02;;;10.82;;
84115;SDS011;74211;52.234;9.860;2024-02-21T06:56:20;21.05;;;9.02;;
84115;SDS011;74211;52.234;9.860;2024-02-21T06:58:53;17.60;;;10.50;;
84115;SDS011;74211;52.234;9.860;2024-02-21T07:01:23;14.35;;;9.10;;
84115;SDS011;74211;52.234;9.860;2024-02-21T07:03:54;22.95;;;9.27;;
84115;SDS011;74211;52.234;9.860;2024-02-21T07:06:23;18.20;;;8.75;;
84115;SDS011;74211;52.234;9.860;2024-02-21T07:08:53;16.85;;;9.20;;
84115;SDS011;74211;52.234;9.860;2024-02-21T07:11:26;16.38;;;9.48;;
84115;SDS011;74211;52.234;9.860;2024-02-21T07:13:56;14.15;;;8.18;;
84115;SDS011;74211;52.234;9.860;2024-02-21T07:16:23;13.15;;;8.95;;
84115;SDS011;74211;52.234;9.860;2024-02-21T07:18:55;18.65;;;10.07;;
84115;SDS011;74211;52.234;9.860;2024-02-21T07:21:25;14.48;;;8.30;;
84115;SDS011;74211;52.234;9.860;2024-02-21T07:23:55;15.60;;;9.85;;
84115;SDS011;74211;52.234;9.860;2024-02-21T07:26:28;19.50;;;9.25;;
84115;SDS011;74211;52.234;9.860;2024-02-21T07:28:58;18.95;;;10.60;;
84115;SDS011;74211;52.234;9.860;2024-02-21T07:31:28;18.30;;;9.38;;
84115;SDS011;74211;52.234;9.860;2024-02-21T07:33:58;19.35;;;9.00;;
84115;SDS011;74211;52.234;9.860;2024-02-21T07:36:28;18.10;;;8.98;;
84115;SDS011;74211;52.234;9.860;2024-02-21T07:38:59;17.98;;;9.38;;
84115;SDS011;74211;52.234;9.860;2024-02-21T07:41:32;18.70;;;8.82;;
84115;SDS011;74211;52.234;9.860;2024-02-21T07:44:02;18.30;;;9.07;;
84115;SDS011;74211;52.234;9.860;2024-02-21T07:46:32;18.02;;;8.60;;
84115;SDS011;74211;52.234;9.860;2024-02-21T07:49:02;19.33;;;9.07;;
84115;SDS011;74211;52.234;9.860;2024-02-21T07:51:32;15.40;;;10.07;;
84115;SDS011;74211;52.234;9.860;2024-02-21T07:54:03;14.30;;;9.30;;
84115;SDS011;74211;52.234;9.860;2024-02-21T07:56:38;13.25;;;8.90;;
84115;SDS011;74211;52.234;9.860;2024-02-21T07:59:11;13.80;;;9.32;;
84115;SDS011;74211;52.234;9.860;2024-02-21T08:01:41;18.25;;;9.40;;
84115;SDS011;74211;52.234;9.860;2024-02-21T08:04:11;17.77;;;9.63;;
84115;SDS011;74211;52.234;9.860;2024-02-21T08:06:41;22.05;;;11.10;;
84115;SDS011;74211;52.234;9.860;2024-02-21T08:09:15;17.48;;;10.32;;
84115;SDS011;74211;52.234;9.860;2024-02-21T08:11:48;15.73;;;8.50;;
84115;SDS011;74211;52.234;9.860;2024-02-21T08:14:18;16.30;;;8.85;;
84115;SDS011;74211;52.234;9.860;2024-02-21T08:16:48;16.42;;;8.55;;
84115;SDS011;74211;52.234;9.860;2024-02-21T08:19:19;18.20;;;8.60;;
84115;SDS011;74211;52.234;9.860;2024-02-21T08:21:50;22.08;;;9.90;;
84115;SDS011;74211;52.234;9.860;2024-02-21T08:24:20;18.13;;;9.15;;
84115;SDS011;74211;52.234;9.860;2024-02-21T08:26:52;14.38;;;8.52;;
84115;SDS011;74211;52.234;9.860;2024-02-21T08:29:23;17.00;;;9.80;;
84115;SDS011;74211;52.234;9.860;2024-02-21T08:31:53;16.67;;;8.07;;
84115;SDS011;74211;52.234;9.860;2024-02-21T08:34:23;18.70;;;7.25;;
84115;SDS011;74211;52.234;9.860;2024-02-21T08:36:53;14.07;;;7.20;;
84115;SDS011;74211;52.234;9.860;2024-02-21T08:39:23;13.93;;;7.45;;
84115;SDS011;74211;52.234;9.860;2024-02-21T08:41:57;17.80;;;7.82;;
84115;SDS011;74211;52.234;9.860;2024-02-21T08:44:28;15.80;;;7.25;;
84115;SDS011;74211;52.234;9.860;2024-02-21T08:46:58;15.98;;;7.43;;
84115;SDS011;74211;52.234;9.860;2024-02-21T08:49:31;11.25;;;6.57;;
84115;SDS011;74211;52.234;9.860;2024-02-21T08:52:01;14.52;;;7.65;;
84115;SDS011;74211;52.234;9.860;2024-02-21T08:54:31;14.70;;;6.45;;
84115;SDS011;74211;52.234;9.860;2024-02-21T08:57:04;14.05;;;7.32;;
84115;SDS011;74211;52.234;9.860;2024-02-21T08:59:34;12.90;;;6.90;;
84115;SDS011;74211;52.234;9.860;2024-02-21T09:02:04;10.73;;;6.25;;
84115;SDS011;74211;52.234;9.860;2024-02-21T09:04:35;9.73;;;5.90;;
84115;SDS011;74211;52.234;9.860;2024-02-21T09:07:06;11.63;;;6.47;;
84115;SDS011;74211;52.234;9.860;2024-02-21T09:09:36;13.05;;;5.93;;
84115;SDS011;74211;52.234;9.860;2024-02-21T09:12:09;10.70;;;5.75;;
84115;SDS011;74211;52.234;9.860;2024-02-21T09:14:42;12.10;;;5.55;;
84115;SDS011;74211;52.234;9.860;2024-02-21T09:17:14;12.80;;;5.50;;
84115;SDS011;74211;52.234;9.860;2024-02-21T09:19:47;8.70;;;5.35;;
84115;SDS011;74211;52.234;9.860;2024-02-21T09:22:17;8.05;;;4.93;;
84115;SDS011;74211;52.234;9.860;2024-02-21T09:24:47;13.77;;;5.05;;
84115;SDS011;74211;52.234;9.860;2024-02-21T09:27:20;10.68;;;5.88;;
84115;SDS011;74211;52.234;9.860;2024-02-21T09:29:50;13.02;;;5.70;;
84115;SDS011;74211;52.234;9.860;2024-02-21T09:32:20;11.23;;;6.55;;
84115;SDS011;74211;52.234;9.860;2024-02-21T09:34:50;13.88;;;5.53;;
84115;SDS011;74211;52.234;9.860;2024-02-21T09:37:26;11.20;;;5.45;;
84115;SDS011;74211;52.234;9.860;2024-02-21T09:39:56;10.52;;;5.82;;
84115;SDS011;74211;52.234;9.860;2024-02-21T09:42:30;8.93;;;6.53;;
84115;SDS011;74211;52.234;9.860;2024-02-21T09:45:07;8.52;;;5.68;;
84115;SDS011;74211;52.234;9.860;2024-02-21T09:47:44;9.90;;;5.55;;
84115;SDS011;74211;52.234;9.860;2024-02-21T09:50:25;13.85;;;5.10;;
84115;SDS011;74211;52.234;9.860;2024-02-21T09:52:56;10.00;;;5.25;;
84115;SDS011;74211;52.234;9.860;2024-02-21T09:55:29;7.80;;;5.53;;
84115;SDS011;74211;52.234;9.860;2024-02-21T09:58:05;11.43;;;4.75;;
84115;SDS011;74211;52.234;9.860;2024-02-21T10:00:35;11.52;;;5.05;;
84115;SDS011;74211;52.234;9.860;2024-02-21T10:03:05;13.63;;;5.53;;
84115;SDS011;74211;52.234;9.860;2024-02-21T10:05:45;9.88;;;5.05;;
84115;SDS011;74211;52.234;9.860;2024-02-21T10:08:18;7.03;;;4.60;;
84115;SDS011;74211;52.234;9.860;2024-02-21T10:10:49;9.30;;;5.60;;
84115;SDS011;74211;52.234;9.860;2024-02-21T10:13:26;12.57;;;5.75;;
84115;SDS011;74211;52.234;9.860;2024-02-21T10:16:06;8.43;;;3.70;;
84115;SDS011;74211;52.234;9.860;2024-02-21T10:18:37;9.57;;;4.82;;
84115;SDS011;74211;52.234;9.860;2024-02-21T10:21:07;7.15;;;4.60;;
84115;SDS011;74211;52.234;9.860;2024-02-21T10:23:44;11.88;;;5.72;;
84115;SDS011;74211;52.234;9.860;2024-02-21T10:26:14;8.90;;;4.00;;
84115;SDS011;74211;52.234;9.860;2024-02-21T10:28:48;8.68;;;4.10;;
84115;SDS011;74211;52.234;9.860;2024-02-21T10:31:22;7.88;;;4.38;;
84115;SDS011;74211;52.234;9.860;2024-02-21T10:33:54;7.75;;;3.30;;
84115;SDS011;74211;52.234;9.860;2024-02-21T10:36:26;6.45;;;3.25;;
84115;SDS011;74211;52.234;9.860;2024-02-21T10:38:56;9.02;;;3.78;;
84115;SDS011;74211;52.234;9.860;2024-02-21T10:41:26;13.38;;;3.80;;
84115;SDS011;74211;52.234;9.860;2024-02-21T10:44:02;6.03;;;3.45;;
84115;SDS011;74211;52.234;9.860;2024-02-21T10:46:37;9.32;;;4.43;;
84115;SDS011;74211;52.234;9.860;2024-02-21T10:49:10;9.02;;;3.85;;
84115;SDS011;74211;52.234;9.860;2024-02-21T10:51:47;7.80;;;3.53;;
84115;SDS011;74211;52.234;9.860;2024-02-21T10:54:23;7.75;;;4.20;;
84115;SDS011;74211;52.234;9.860;2024-02-21T10:57:17;9.27;;;3.63;;
84115;SDS011;74211;52.234;9.860;2024-02-21T11:02:23;6.68;;;2.70;;
84115;SDS011;74211;52.234;9.860;2024-02-21T11:04:55;7.10;;;3.20;;
84115;SDS011;74211;52.234;9.860;2024-02-21T11:07:27;8.77;;;3.10;;
84115;SDS011;74211;52.234;9.860;2024-02-21T11:09:59;5.95;;;3.13;;
84115;SDS011;74211;52.234;9.860;2024-02-21T11:12:32;5.93;;;3.50;;
84115;SDS011;74211;52.234;9.860;2024-02-21T11:15:08;9.60;;;2.92;;
84115;SDS011;74211;52.234;9.860;2024-02-21T11:17:40;5.40;;;2.67;;
84115;SDS011;74211;52.234;9.860;2024-02-21T11:20:16;4.93;;;3.00;;
84115;SDS011;74211;52.234;9.860;2024-02-21T11:22:46;5.05;;;2.88;;
84115;SDS011;74211;52.234;9.860;2024-02-21T11:25:21;4.28;;;2.95;;
84115;SDS011;74211;52.234;9.860;2024-02-21T11:27:58;5.20;;;2.67;;
84115;SDS011;74211;52.234;9.860;2024-02-21T11:30:32;6.10;;;3.33;;
84115;SDS011;74211;52.234;9.860;2024-02-21T11:33:06;6.72;;;3.15;;
84115;SDS011;74211;52.234;9.860;2024-02-21T11:35:37;6.90;;;2.75;;
84115;SDS011;74211;52.234;9.860;2024-02-21T11:38:07;5.60;;;3.13;;
84115;SDS011;74211;52.234;9.860;2024-02-21T11:40:43;6.93;;;2.88;;
84115;SDS011;74211;52.234;9.860;2024-02-21T11:43:15;6.57;;;3.03;;
84115;SDS011;74211;52.234;9.860;2024-02-21T11:45:47;9.75;;;3.10;;
84115;SDS011;74211;52.234;9.860;2024-02-21T11:48:17;6.32;;;2.95;;
84115;SDS011;74211;52.234;9.860;2024-02-21T11:50:53;4.35;;;2.60;;
84115;SDS011;74211;52.234;9.860;2024-02-21T11:53:24;5.97;;;2.70;;
84115;SDS011;74211;52.234;9.860;2024-02-21T11:56:01;8.77;;;3.25;;
84115;SDS011;74211;52.234;9.860;2024-02-21T11:58:31;4.68;;;3.13;;
84115;SDS011;74211;52.234;9.860;2024-02-21T12:01:05;7.65;;;3.85;;
84115;SDS011;74211;52.234;9.860;2024-02-21T12:03:35;6.57;;;3.05;;
84115;SDS011;74211;52.234;9.860;2024-02-21T12:06:06;6.15;;;3.53;;
84115;SDS011;74211;52.234;9.860;2024-02-21T12:08:42;6.57;;;3.58;;
84115;SDS011;74211;52.234;9.860;2024-02-21T12:11:16;8.77;;;4.07;;
84115;SDS011;74211;52.234;9.860;2024-02-21T12:13:59;7.25;;;4.10;;
84115;SDS011;74211;52.234;9.860;2024-02-21T12:16:35;6.25;;;3.72;;
84115;SDS011;74211;52.234;9.860;2024-02-21T12:19:06;7.97;;;4.32;;
84115;SDS011;74211;52.234;9.860;2024-02-21T12:21:36;6.78;;;4.22;;
84115;SDS011;74211;52.234;9.860;2024-02-21T12:24:13;9.10;;;5.13;;
84115;SDS011;74211;52.234;9.860;2024-02-21T12:26:44;12.18;;;4.13;;
84115;SDS011;74211;52.234;9.860;2024-02-21T12:29:14;10.68;;;5.50;;
84115;SDS011;74211;52.234;9.860;2024-02-21T12:31:46;8.48;;;4.43;;
84115;SDS011;74211;52.234;9.860;2024-02-21T12:34:17;8.95;;;4.90;;
84115;SDS011;74211;52.234;9.860;2024-02-21T12:37:03;9.82;;;4.82;;
84115;SDS011;74211;52.234;9.860;2024-02-21T12:39:34;10.05;;;5.38;;
84115;SDS011;74211;52.234;9.860;2024-02-21T12:42:05;9.48;;;5.22;;
84115;SDS011;74211;52.234;9.860;2024-02-21T12:44:35;9.52;;;5.47;;
84115;SDS011;74211;52.234;9.860;2024-02-21T12:47:08;11.15;;;6.13;;
84115;SDS011;74211;52.234;9.860;2024-02-21T12:49:39;9.30;;;5.15;;
84115;SDS011;74211;52.234;9.860;2024-02-21T12:52:12;13.68;;;6.70;;
84115;SDS011;74211;52.234;9.860;2024-02-21T12:54:43;8.07;;;5.05;;
84115;SDS011;74211;52.234;9.860;2024-02-21T12:57:12;9.23;;;5.85;;
84115;SDS011;74211;52.234;9.860;2024-02-21T12:59:42;11.65;;;6.47;;
84115;SDS011;74211;52.234;9.860;2024-02-21T13:02:15;10.77;;;5.82;;
84115;SDS011;74211;52.234;9.860;2024-02-21T13:04:46;7.30;;;4.90;;
84115;SDS011;74211;52.234;9.860;2024-02-21T13:07:17;14.15;;;6.88;;
84115;SDS011;74211;52.234;9.860;2024-02-21T13:09:47;9.88;;;5.47;;
84115;SDS011;74211;52.234;9.860;2024-02-21T13:12:17;12.07;;;6.38;;
84115;SDS011;74211;52.234;9.860;2024-02-21T13:14:47;9.35;;;5.78;;
84115;SDS011;74211;52.234;9.860;2024-02-21T13:17:19;9.05;;;5.70;;
84115;SDS011;74211;52.234;9.860;2024-02-21T13:19:50;9.20;;;5.63;;
84115;SDS011;74211;52.234;9.860;2024-02-21T13:22:20;7.95;;;5.35;;
84115;SDS011;74211;52.234;9.860;2024-02-21T13:24:53;9.25;;;4.80;;
84115;SDS011;74211;52.234;9.860;2024-02-21T13:27:24;8.40;;;4.40;;
84115;SDS011;74211;52.234;9.860;2024-02-21T13:29:55;6.93;;;3.95;;
84115;SDS011;74211;52.234;9.860;2024-02-21T13:32:28;9.15;;;4.72;;
84115;SDS011;74211;52.234;9.860;2024-02-21T13:34:58;5.38;;;3.13;;
84115;SDS011;74211;52.234;9.860;2024-02-21T13:37:30;7.63;;;3.75;;
84115;SDS011;74211;52.234;9.860;2024-02-21T13:40:00;10.50;;;3.60;;
84115;SDS011;74211;52.234;9.860;2024-02-21T13:42:30;6.88;;;3.38;;
84115;SDS011;74211;52.234;9.860;2024-02-21T13:45:01;6.65;;;3.60;;
84115;SDS011;74211;52.234;9.860;2024-02-21T13:47:34;7.82;;;3.53;;
84115;SDS011;74211;52.234;9.860;2024-02-21T13:50:06;4.22;;;2.97;;
84115;SDS011;74211;52.234;9.860;2024-02-21T13:52:38;6.45;;;2.55;;
84115;SDS011;74211;52.234;9.860;2024-02-21T13:55:08;5.97;;;3.33;;
84115;SDS011;74211;52.234;9.860;2024-02-21T13:57:38;6.32;;;4.03;;
84115;SDS011;74211;52.234;9.860;2024-02-21T14:00:09;7.45;;;3.55;;
84115;SDS011;74211;52.234;9.860;2024-02-21T14:02:42;9.60;;;3.90;;
84115;SDS011;74211;52.234;9.860;2024-02-21T14:05:12;6.90;;;3.17;;
84115;SDS011;74211;52.234;9.860;2024-02-21T14:07:42;9.10;;;3.50;;
84115;SDS011;74211;52.234;9.860;2024-02-21T14:10:12;7.88;;;3.92;;
84115;SDS011;74211;52.234;9.860;2024-02-21T14:12:42;5.78;;;2.97;;
84115;SDS011;74211;52.234;9.860;2024-02-21T14:15:12;7.25;;;3.28;;
84115;SDS011;74211;52.234;9.860;2024-02-21T14:17:45;5.72;;;3.50;;
84115;SDS011;74211;52.234;9.860;2024-02-21T14:20:15;4.50;;;3.33;;
84115;SDS011;74211;52.234;9.860;2024-02-21T14:22:46;8.60;;;3.22;;
84115;SDS011;74211;52.234;9.860;2024-02-21T14:25:16;5.57;;;3.10;;
84115;SDS011;74211;52.234;9.860;2024-02-21T14:27:46;7.00;;;3.58;;
84115;SDS011;74211;52.234;9.860;2024-02-21T14:30:17;9.52;;;4.30;;
84115;SDS011;74211;52.234;9.860;2024-02-21T14:32:49;9.43;;;3.90;;
84115;SDS011;74211;52.234;9.860;2024-02-21T14:35:20;6.13;;;3.22;;
84115;SDS011;74211;52.234;9.860;2024-02-21T14:37:50;7.32;;;2.85;;
84115;SDS011;74211;52.234;9.860;2024-02-21T14:40:24;10.93;;;4.40;;
84115;SDS011;74211;52.234;9.860;2024-02-21T14:42:56;9.05;;;4.55;;
84115;SDS011;74211;52.234;9.860;2024-02-21T14:45:28;11.63;;;3.28;;
84115;SDS011;74211;52.234;9.860;2024-02-21T14:48:00;7.38;;;3.45;;
84115;SDS011;74211;52.234;9.860;2024-02-21T14:50:30;12.50;;;5.68;;
84115;SDS011;74211;52.234;9.860;2024-02-21T14:53:00;13.82;;;5.03;;
84115;SDS011;74211;52.234;9.860;2024-02-21T14:55:30;12.18;;;4.15;;
84115;SDS011;74211;52.234;9.860;2024-02-21T14:58:00;5.82;;;3.10;;
84115;SDS011;74211;52.234;9.860;2024-02-21T15:00:30;6.78;;;3.08;;